sensor_id;sensor_type;location;lat;lon;timestamp;P1;durP1;ratioP1;P2;durP2;ratioP2
1955;SDS011;978;48.314;11.562;2023-05-10T00:01:12;6.20;;;0.87;;
1955;SDS011;978;48.314;11.562;2023-05-10T00:03:40;6.07;;;0.70;;
1955;SDS011;978;48.314;11.562;2023-05-10T00:06:10;6.10;;;0.70;;
1955;SDS011;978;48.314;11.562;2023-05-10T00:08:40;6.17;;;0.70;;
1955;SDS011;978;48.314;11.562;2023-05-10T00:11:12;6.10;;;0.80;;
1955;SDS011;978;48.314;11.562;2023-05-10T00:13:41;5.90;;;0.60;;
1955;SDS011;978;48.314;11.562;2023-05-10T00:16:15;6.00;;;0.50;;
1955;SDS011;978;48.314;11.562;2023-05-10T00:18:44;6.03;;;0.70;;
1955;SDS011;978;48.314;11.562;2023-05-10T00:21:14;6.00;;;0.53;;
1955;SDS011;978;48.314;11.562;2023-05-10T00:23:44;6.07;;;0.60;;
1955;SDS011;978;48.314;11.562;2023-05-10T00:26:12;6.10;;;0.63;;
1955;SDS011;978;48.314;11.562;2023-05-10T00:28:40;6.10;;;0.77;;
1955;SDS011;978;48.314;11.562;2023-05-10T00:31:09;6.00;;;0.50;;
1955;SDS011;978;48.314;11.562;2023-05-10T00:33:37;6.00;;;0.40;;
1955;SDS011;978;48.314;11.562;2023-05-10T00:36:05;6.00;;;0.60;;
1955;SDS011;978;48.314;11.562;2023-05-10T00:38:33;6.50;;;0.67;;
1955;SDS011;978;48.314;11.562;2023-05-10T00:41:00;6.03;;;0.43;;
1955;SDS011;978;48.314;11.562;2023-05-10T00:43:26;6.70;;;0.93;;
1955;SDS011;978;48.314;11.562;2023-05-10T00:45:54;6.30;;;0.90;;
1955;SDS011;978;48.314;11.562;2023-05-10T00:48:21;6.10;;;0.50;;
1955;SDS011;978;48.314;11.562;2023-05-10T00:50:50;6.00;;;0.60;;
1955;SDS011;978;48.314;11.562;2023-05-10T00:53:18;6.30;;;0.80;;
1955;SDS011;978;48.314;11.562;2023-05-10T00:55:46;6.90;;;1.07;;
1955;SDS011;978;48.314;11.562;2023-05-10T00:58:16;6.17;;;0.60;;
1955;SDS011;978;48.314;11.562;2023-05-10T01:00:44;6.10;;;0.57;;
1955;SDS011;978;48.314;11.562;2023-05-10T01:03:13;6.17;;;0.50;;
1955;SDS011;978;48.314;11.562;2023-05-10T01:05:41;6.10;;;0.50;;
1955;SDS011;978;48.314;11.562;2023-05-10T01:08:09;6.17;;;0.63;;
1955;SDS011;978;48.314;11.562;2023-05-10T01:10:36;6.20;;;0.80;;
1955;SDS011;978;48.314;11.562;2023-05-10T01:13:03;6.10;;;0.60;;
1955;SDS011;978;48.314;11.562;2023-05-10T01:15:32;6.30;;;0.60;;
1955;SDS011;978;48.314;11.562;2023-05-10T01:17:59;6.17;;;0.67;;
1955;SDS011;978;48.314;11.562;2023-05-10T01:20:27;6.20;;;0.70;;
1955;SDS011;978;48.314;11.562;2023-05-10T01:23:16;6.17;;;0.77;;
1955;SDS011;978;48.314;11.562;2023-05-10T01:29:19;6.10;;;0.50;;
1955;SDS011;978;48.314;11.562;2023-05-10T01:32:15;6.30;;;0.80;;
1955;SDS011;978;48.314;11.562;2023-05-10T01:34:50;6.10;;;0.40;;
1955;SDS011;978;48.314;11.562;2023-05-10T01:37:28;6.13;;;0.60;;
1955;SDS011;978;48.314;11.562;2023-05-10T01:40:00;6.20;;;0.60;;
1955;SDS011;978;48.314;11.562;2023-05-10T01:42:33;6.40;;;0.77;;
1955;SDS011;978;48.314;11.562;2023-05-10T01:45:07;6.27;;;0.70;;
1955;SDS011;978;48.314;11.562;2023-05-10T01:47:45;6.00;;;0.47;;
1955;SDS011;978;48.314;11.562;2023-05-10T01:50:18;6.13;;;0.50;;
1955;SDS011;978;48.314;11.562;2023-05-10T01:52:53;6.17;;;0.60;;
1955;SDS011;978;48.314;11.562;2023-05-10T01:55:22;6.10;;;0.50;;
1955;SDS011;978;48.314;11.562;2023-05-10T01:57:56;6.07;;;0.50;;
1955;SDS011;978;48.314;11.562;2023-05-10T02:00:29;6.10;;;0.53;;
1955;SDS011;978;48.314;11.562;2023-05-10T02:02:59;6.17;;;0.60;;
1955;SDS011;978;48.314;11.562;2023-05-10T02:05:29;6.10;;;0.47;;
1955;SDS011;978;48.314;11.562;2023-05-10T02:07:58;6.40;;;0.87;;
1955;SDS011;978;48.314;11.562;2023-05-10T02:10:28;6.07;;;0.60;;
1955;SDS011;978;48.314;11.562;2023-05-10T02:12:58;6.20;;;0.57;;
1955;SDS011;978;48.314;11.562;2023-05-10T02:15:26;6.27;;;0.73;;
1955;SDS011;978;48.314;11.562;2023-05-10T02:17:54;6.80;;;1.03;;
1955;SDS011;978;48.314;11.562;2023-05-10T02:20:25;6.10;;;0.60;;
1955;SDS011;978;48.314;11.562;2023-05-10T02:22:53;6.40;;;0.77;;
1955;SDS011;978;48.314;11.562;2023-05-10T02:25:23;6.20;;;0.60;;
1955;SDS011;978;48.314;11.562;2023-05-10T02:27:53;6.10;;;0.40;;
1955;SDS011;978;48.314;11.562;2023-05-10T02:30:23;6.10;;;0.43;;
1955;SDS011;978;48.314;11.562;2023-05-10T02:32:51;6.10;;;0.50;;
1955;SDS011;978;48.314;11.562;2023-05-10T02:35:20;6.10;;;0.60;;
1955;SDS011;978;48.314;11.562;2023-05-10T02:37:56;6.10;;;0.50;;
1955;SDS011;978;48.314;11.562;2023-05-10T02:40:26;6.07;;;0.50;;
1955;SDS011;978;48.314;11.562;2023-05-10T02:42:57;6.10;;;0.50;;
1955;SDS011;978;48.314;11.562;2023-05-10T02:45:26;6.23;;;0.70;;
1955;SDS011;978;48.314;11.562;2023-05-10T02:47:55;6.10;;;0.50;;
1955;SDS011;978;48.314;11.562;2023-05-10T02:50:24;6.10;;;0.50;;
1955;SDS011;978;48.314;11.562;2023-05-10T02:52:59;6.07;;;0.50;;
1955;SDS011;978;48.314;11.562;2023-05-10T02:55:31;6.13;;;0.50;;
1955;SDS011;978;48.314;11.562;2023-05-10T02:58:02;6.20;;;0.40;;
1955;SDS011;978;48.314;11.562;2023-05-10T03:00:30;6.10;;;0.50;;
1955;SDS011;978;48.314;11.562;2023-05-10T03:02:57;6.50;;;0.70;;
1955;SDS011;978;48.314;11.562;2023-05-10T03:05:25;6.13;;;0.50;;
1955;SDS011;978;48.314;11.562;2023-05-10T03:07:53;6.10;;;0.50;;
1955;SDS011;978;48.314;11.562;2023-05-10T03:10:23;6.07;;;0.40;;
1955;SDS011;978;48.314;11.562;2023-05-10T03:12:56;6.13;;;0.50;;
1955;SDS011;978;48.314;11.562;2023-05-10T03:15:37;6.10;;;0.50;;
1955;SDS011;978;48.314;11.562;2023-05-10T03:18:13;6.20;;;0.50;;
1955;SDS011;978;48.314;11.562;2023-05-10T03:20:46;6.17;;;0.50;;
1955;SDS011;978;48.314;11.562;2023-05-10T03:23:20;6.30;;;0.77;;
1955;SDS011;978;48.314;11.562;2023-05-10T03:25:52;5.97;;;0.50;;
1955;SDS011;978;48.314;11.562;2023-05-10T03:28:23;6.23;;;0.53;;
1955;SDS011;978;48.314;11.562;2023-05-10T03:30:53;6.20;;;0.70;;
1955;SDS011;978;48.314;11.562;2023-05-10T03:33:23;6.17;;;0.50;;
1955;SDS011;978;48.314;11.562;2023-05-10T03:35:53;6.10;;;0.40;;
1955;SDS011;978;48.314;11.562;2023-05-10T03:38:22;6.30;;;0.80;;
1955;SDS011;978;48.314;11.562;2023-05-10T03:40:51;6.40;;;1.03;;
1955;SDS011;978;48.314;11.562;2023-05-10T03:43:19;6.20;;;0.60;;
1955;SDS011;978;48.314;11.562;2023-05-10T03:45:45;6.10;;;0.40;;
1955;SDS011;978;48.314;11.562;2023-05-10T03:48:13;6.17;;;0.60;;
1955;SDS011;978;48.314;11.562;2023-05-10T03:50:40;6.97;;;0.93;;
1955;SDS011;978;48.314;11.562;2023-05-10T03:53:09;6.13;;;0.53;;
1955;SDS011;978;48.314;11.562;2023-05-10T03:55:37;6.13;;;0.67;;
1955;SDS011;978;48.314;11.562;2023-05-10T03:58:06;6.17;;;0.60;;
1955;SDS011;978;48.314;11.562;2023-05-10T04:00:37;6.10;;;0.50;;
1955;SDS011;978;48.314;11.562;2023-05-10T04:03:08;6.80;;;0.63;;
1955;SDS011;978;48.314;11.562;2023-05-10T04:05:35;6.30;;;0.70;;
1955;SDS011;978;48.314;11.562;2023-05-10T04:08:02;6.03;;;0.40;;
1955;SDS011;978;48.314;11.562;2023-05-10T04:10:29;6.10;;;0.40;;
1955;SDS011;978;48.314;11.562;2023-05-10T04:13:00;6.13;;;0.50;;
1955;SDS011;978;48.314;11.562;2023-05-10T04:15:26;6.17;;;0.40;;
1955;SDS011;978;48.314;11.562;2023-05-10T04:17:55;6.20;;;0.50;;
1955;SDS011;978;48.314;11.562;2023-05-10T04:20:23;6.27;;;0.60;;
1955;SDS011;978;48.314;11.562;2023-05-10T04:22:51;6.10;;;0.50;;
1955;SDS011;978;48.314;11.562;2023-05-10T04:25:21;6.50;;;0.70;;
1955;SDS011;978;48.314;11.562;2023-05-10T04:27:51;7.03;;;0.50;;
1955;SDS011;978;48.314;11.562;2023-05-10T04:30:27;6.17;;;0.60;;
1955;SDS011;978;48.314;11.562;2023-05-10T04:32:56;6.20;;;0.50;;
1955;SDS011;978;48.314;11.562;2023-05-10T04:35:25;6.10;;;0.40;;
1955;SDS011;978;48.314;11.562;2023-05-10T04:37:53;6.90;;;0.80;;
1955;SDS011;978;48.314;11.562;2023-05-10T04:40:20;6.20;;;0.50;;
1955;SDS011;978;48.314;11.562;2023-05-10T04:42:48;6.20;;;0.50;;
1955;SDS011;978;48.314;11.562;2023-05-10T04:45:18;6.50;;;0.50;;
1955;SDS011;978;48.314;11.562;2023-05-10T04:47:46;6.27;;;0.60;;
1955;SDS011;978;48.314;11.562;2023-05-10T04:50:15;6.23;;;0.50;;
1955;SDS011;978;48.314;11.562;2023-05-10T04:52:43;6.37;;;0.50;;
1955;SDS011;978;48.314;11.562;2023-05-10T04:55:10;6.30;;;0.50;;
1955;SDS011;978;48.314;11.562;2023-05-10T04:57:37;6.33;;;0.40;;
1955;SDS011;978;48.314;11.562;2023-05-10T05:00:05;6.70;;;0.87;;
1955;SDS011;978;48.314;11.562;2023-05-10T05:02:35;6.40;;;0.50;;
1955;SDS011;978;48.314;11.562;2023-05-10T05:05:03;6.40;;;0.50;;
1955;SDS011;978;48.314;11.562;2023-05-10T05:07:31;6.43;;;0.50;;
1955;SDS011;978;48.314;11.562;2023-05-10T05:10:02;6.50;;;0.40;;
1955;SDS011;978;48.314;11.562;2023-05-10T05:12:30;7.00;;;0.70;;
1955;SDS011;978;48.314;11.562;2023-05-10T05:14:59;6.37;;;0.40;;
1955;SDS011;978;48.314;11.562;2023-05-10T05:17:26;6.53;;;0.50;;
1955;SDS011;978;48.314;11.562;2023-05-10T05:19:54;6.40;;;0.40;;
1955;SDS011;978;48.314;11.562;2023-05-10T05:22:24;6.37;;;0.40;;
1955;SDS011;978;48.314;11.562;2023-05-10T05:24:54;6.53;;;0.60;;
1955;SDS011;978;48.314;11.562;2023-05-10T05:27:30;6.43;;;0.40;;
1955;SDS011;978;48.314;11.562;2023-05-10T05:30:00;6.40;;;0.47;;
1955;SDS011;978;48.314;11.562;2023-05-10T05:32:28;6.30;;;0.50;;
1955;SDS011;978;48.314;11.562;2023-05-10T05:34:55;6.50;;;0.50;;
1955;SDS011;978;48.314;11.562;2023-05-10T05:37:25;6.33;;;0.40;;
1955;SDS011;978;48.314;11.562;2023-05-10T05:39:51;6.30;;;0.40;;
1955;SDS011;978;48.314;11.562;2023-05-10T05:42:20;6.40;;;0.50;;
1955;SDS011;978;48.314;11.562;2023-05-10T05:44:47;6.27;;;0.50;;
1955;SDS011;978;48.314;11.562;2023-05-10T05:47:15;6.23;;;0.40;;
1955;SDS011;978;48.314;11.562;2023-05-10T05:49:42;6.20;;;0.50;;
1955;SDS011;978;48.314;11.562;2023-05-10T05:52:10;6.20;;;0.40;;
1955;SDS011;978;48.314;11.562;2023-05-10T05:54:41;6.20;;;0.40;;
1955;SDS011;978;48.314;11.562;2023-05-10T05:57:07;6.20;;;0.50;;
1955;SDS011;978;48.314;11.562;2023-05-10T05:59:34;6.20;;;0.60;;
1955;SDS011;978;48.314;11.562;2023-05-10T06:02:03;6.17;;;0.50;;
1955;SDS011;978;48.314;11.562;2023-05-10T06:04:34;6.20;;;0.40;;
1955;SDS011;978;48.314;11.562;2023-05-10T06:07:04;6.50;;;0.70;;
1955;SDS011;978;48.314;11.562;2023-05-10T06:09:31;6.17;;;0.50;;
1955;SDS011;978;48.314;11.562;2023-05-10T06:12:00;6.10;;;0.40;;
1955;SDS011;978;48.314;11.562;2023-05-10T06:14:27;6.20;;;0.50;;
1955;SDS011;978;48.314;11.562;2023-05-10T06:16:55;6.10;;;0.40;;
1955;SDS011;978;48.314;11.562;2023-05-10T06:19:24;6.20;;;0.40;;
1955;SDS011;978;48.314;11.562;2023-05-10T06:21:51;6.17;;;0.50;;
1955;SDS011;978;48.314;11.562;2023-05-10T06:24:18;6.23;;;0.43;;
1955;SDS011;978;48.314;11.562;2023-05-10T06:26:45;6.20;;;0.40;;
1955;SDS011;978;48.314;11.562;2023-05-10T06:29:15;6.23;;;0.40;;
1955;SDS011;978;48.314;11.562;2023-05-10T06:31:42;6.07;;;0.40;;
1955;SDS011;978;48.314;11.562;2023-05-10T06:34:10;6.17;;;0.50;;
1955;SDS011;978;48.314;11.562;2023-05-10T06:36:37;6.20;;;0.50;;
1955;SDS011;978;48.314;11.562;2023-05-10T06:39:06;6.20;;;0.50;;
1955;SDS011;978;48.314;11.562;2023-05-10T06:41:34;6.07;;;0.40;;
1955;SDS011;978;48.314;11.562;2023-05-10T06:44:02;9.03;;;0.60;;
1955;SDS011;978;48.314;11.562;2023-05-10T06:46:34;6.10;;;0.40;;
1955;SDS011;978;48.314;11.562;2023-05-10T06:49:02;6.10;;;0.50;;
1955;SDS011;978;48.314;11.562;2023-05-10T06:51:29;6.17;;;0.50;;
1955;SDS011;978;48.314;11.562;2023-05-10T06:53:58;6.13;;;0.50;;
1955;SDS011;978;48.314;11.562;2023-05-10T06:56:28;6.03;;;0.50;;
1955;SDS011;978;48.314;11.562;2023-05-10T06:58:58;6.10;;;0.40;;
1955;SDS011;978;48.314;11.562;2023-05-10T07:01:25;6.13;;;0.40;;
1955;SDS011;978;48.314;11.562;2023-05-10T07:03:56;6.20;;;0.70;;
1955;SDS011;978;48.314;11.562;2023-05-10T07:06:24;6.00;;;0.40;;
1955;SDS011;978;48.314;11.562;2023-05-10T07:08:50;6.10;;;0.50;;
1955;SDS011;978;48.314;11.562;2023-05-10T07:11:17;6.10;;;0.50;;
1955;SDS011;978;48.314;11.562;2023-05-10T07:13:44;6.07;;;0.50;;
1955;SDS011;978;48.314;11.562;2023-05-10T07:16:11;5.97;;;0.40;;
1955;SDS011;978;48.314;11.562;2023-05-10T07:18:39;6.13;;;0.47;;
1955;SDS011;978;48.314;11.562;2023-05-10T07:21:09;6.07;;;0.50;;
1955;SDS011;978;48.314;11.562;2023-05-10T07:23:37;6.00;;;0.40;;
1955;SDS011;978;48.314;11.562;2023-05-10T07:26:03;6.20;;;0.50;;
1955;SDS011;978;48.314;11.562;2023-05-10T07:28:32;6.13;;;0.50;;
1955;SDS011;978;48.314;11.562;2023-05-10T07:31:00;5.97;;;0.50;;
1955;SDS011;978;48.314;11.562;2023-05-10T07:33:26;5.97;;;0.40;;
1955;SDS011;978;48.314;11.562;2023-05-10T07:35:56;6.10;;;0.50;;
1955;SDS011;978;48.314;11.562;2023-05-10T07:38:24;6.00;;;0.43;;
1955;SDS011;978;48.314;11.562;2023-05-10T07:40:51;6.10;;;0.50;;
1955;SDS011;978;48.314;11.562;2023-05-10T07:43:17;6.10;;;0.40;;
1955;SDS011;978;48.314;11.562;2023-05-10T07:45:45;6.10;;;0.50;;
1955;SDS011;978;48.314;11.562;2023-05-10T07:48:13;6.10;;;0.40;;
1955;SDS011;978;48.314;11.562;2023-05-10T07:50:41;6.10;;;0.40;;
1955;SDS011;978;48.314;11.562;2023-05-10T07:53:09;6.10;;;0.40;;
1955;SDS011;978;48.314;11.562;2023-05-10T07:55:39;6.10;;;0.50;;
1955;SDS011;978;48.314;11.562;2023-05-10T07:58:05;6.10;;;0.40;;
1955;SDS011;978;48.314;11.562;2023-05-10T08:00:36;6.00;;;0.50;;
1955;SDS011;978;48.314;11.562;2023-05-10T08:03:10;6.10;;;0.50;;
1955;SDS011;978;48.314;11.562;2023-05-10T08:05:38;6.03;;;0.40;;
1955;SDS011;978;48.314;11.562;2023-05-10T08:08:05;6.10;;;0.40;;
1955;SDS011;978;48.314;11.562;2023-05-10T08:10:36;5.93;;;0.40;;
1955;SDS011;978;48.314;11.562;2023-05-10T08:13:08;6.00;;;0.40;;
1955;SDS011;978;48.314;11.562;2023-05-10T08:15:36;6.07;;;0.60;;
1955;SDS011;978;48.314;11.562;2023-05-10T08:18:04;6.30;;;0.80;;
1955;SDS011;978;48.314;11.562;2023-05-10T08:20:32;6.10;;;0.50;;
1955;SDS011;978;48.314;11.562;2023-05-10T08:22:59;7.30;;;0.70;;
1955;SDS011;978;48.314;11.562;2023-05-10T08:25:26;9.40;;;0.80;;
1955;SDS011;978;48.314;11.562;2023-05-10T08:27:53;12.87;;;3.40;;
1955;SDS011;978;48.314;11.562;2023-05-10T08:30:21;21.20;;;16.97;;
1955;SDS011;978;48.314;11.562;2023-05-10T08:32:48;27.23;;;24.53;;
1955;SDS011;978;48.314;11.562;2023-05-10T08:35:16;32.33;;;29.33;;
1955;SDS011;978;48.314;11.562;2023-05-10T08:37:44;38.63;;;35.37;;
1955;SDS011;978;48.314;11.562;2023-05-10T08:40:11;44.60;;;41.17;;
1955;SDS011;978;48.314;11.562;2023-05-10T08:42:40;54.60;;;50.73;;
1955;SDS011;978;48.314;11.562;2023-05-10T08:45:15;58.90;;;54.87;;
1955;SDS011;978;48.314;11.562;2023-05-10T08:47:45;68.53;;;64.00;;
1955;SDS011;978;48.314;11.562;2023-05-10T08:50:15;82.33;;;77.40;;
1955;SDS011;978;48.314;11.562;2023-05-10T08:52:44;78.67;;;73.87;;
1955;SDS011;978;48.314;11.562;2023-05-10T08:55:14;92.60;;;87.33;;
1955;SDS011;978;48.314;11.562;2023-05-10T08:57:41;87.43;;;82.17;;
1955;SDS011;978;48.314;11.562;2023-05-10T09:00:09;110.83;;;105.07;;
1955;SDS011;978;48.314;11.562;2023-05-10T09:02:39;107.43;;;101.57;;
1955;SDS011;978;48.314;11.562;2023-05-10T09:05:11;112.00;;;106.03;;
1955;SDS011;978;48.314;11.562;2023-05-10T09:07:42;120.13;;;113.83;;
1955;SDS011;978;48.314;11.562;2023-05-10T09:10:10;117.90;;;111.60;;
1955;SDS011;978;48.314;11.562;2023-05-10T09:12:39;115.40;;;109.23;;
1955;SDS011;978;48.314;11.562;2023-05-10T09:15:12;121.40;;;115.00;;
1955;SDS011;978;48.314;11.562;2023-05-10T09:17:43;127.80;;;121.27;;
1955;SDS011;978;48.314;11.562;2023-05-10T09:20:13;118.80;;;112.50;;
1955;SDS011;978;48.314;11.562;2023-05-10T09:22:40;139.83;;;132.77;;
1955;SDS011;978;48.314;11.562;2023-05-10T09:25:09;116.40;;;110.23;;
1955;SDS011;978;48.314;11.562;2023-05-10T09:27:37;134.50;;;127.67;;
1955;SDS011;978;48.314;11.562;2023-05-10T09:30:08;164.73;;;157.13;;
1955;SDS011;978;48.314;11.562;2023-05-10T09:32:42;146.57;;;139.30;;
1955;SDS011;978;48.314;11.562;2023-05-10T09:35:14;160.73;;;153.23;;
1955;SDS011;978;48.314;11.562;2023-05-10T09:37:44;177.40;;;169.07;;
1955;SDS011;978;48.314;11.562;2023-05-10T09:40:13;156.20;;;148.73;;
1955;SDS011;978;48.314;11.562;2023-05-10T09:42:50;161.63;;;153.53;;
1955;SDS011;978;48.314;11.562;2023-05-10T09:45:18;155.83;;;148.30;;
1955;SDS011;978;48.314;11.562;2023-05-10T09:47:45;162.67;;;154.83;;
1955;SDS011;978;48.314;11.562;2023-05-10T09:50:18;180.73;;;172.53;;
1955;SDS011;978;48.314;11.562;2023-05-10T09:52:47;169.80;;;161.80;;
1955;SDS011;978;48.314;11.562;2023-05-10T09:55:17;181.50;;;173.23;;
1955;SDS011;978;48.314;11.562;2023-05-10T09:57:45;188.47;;;179.97;;
1955;SDS011;978;48.314;11.562;2023-05-10T10:00:19;185.43;;;177.03;;
1955;SDS011;978;48.314;11.562;2023-05-10T10:02:47;192.40;;;183.83;;
1955;SDS011;978;48.314;11.562;2023-05-10T10:05:21;187.87;;;179.30;;
1955;SDS011;978;48.314;11.562;2023-05-10T10:07:54;199.93;;;191.07;;
1955;SDS011;978;48.314;11.562;2023-05-10T10:10:23;192.43;;;183.67;;
1955;SDS011;978;48.314;11.562;2023-05-10T10:12:50;198.17;;;189.37;;
1955;SDS011;978;48.314;11.562;2023-05-10T10:15:17;181.60;;;173.07;;
1955;SDS011;978;48.314;11.562;2023-05-10T10:17:46;206.90;;;197.77;;
1955;SDS011;978;48.314;11.562;2023-05-10T10:20:15;196.70;;;187.93;;
1955;SDS011;978;48.314;11.562;2023-05-10T10:22:45;212.30;;;202.90;;
1955;SDS011;978;48.314;11.562;2023-05-10T10:25:14;187.33;;;178.67;;
1955;SDS011;978;48.314;11.562;2023-05-10T10:27:45;236.57;;;226.60;;
1955;SDS011;978;48.314;11.562;2023-05-10T10:30:21;230.67;;;220.50;;
1955;SDS011;978;48.314;11.562;2023-05-10T10:32:59;261.23;;;250.27;;
1955;SDS011;978;48.314;11.562;2023-05-10T10:35:38;211.23;;;202.13;;
1955;SDS011;978;48.314;11.562;2023-05-10T10:38:08;229.63;;;219.93;;
1955;SDS011;978;48.314;11.562;2023-05-10T10:40:35;217.07;;;207.83;;
1955;SDS011;978;48.314;11.562;2023-05-10T10:43:21;220.70;;;211.40;;
1955;SDS011;978;48.314;11.562;2023-05-10T10:48:36;218.73;;;209.30;;
1955;SDS011;978;48.314;11.562;2023-05-10T10:51:05;243.07;;;232.70;;
1955;SDS011;978;48.314;11.562;2023-05-10T10:53:35;214.93;;;205.73;;
1955;SDS011;978;48.314;11.562;2023-05-10T10:56:05;224.07;;;214.23;;
1955;SDS011;978;48.314;11.562;2023-05-10T10:58:38;241.17;;;230.87;;
1955;SDS011;978;48.314;11.562;2023-05-10T11:01:12;214.30;;;204.87;;
1955;SDS011;978;48.314;11.562;2023-05-10T11:03:41;209.90;;;200.67;;
1955;SDS011;978;48.314;11.562;2023-05-10T11:06:45;213.43;;;204.07;;
1955;SDS011;978;48.314;11.562;2023-05-10T11:09:11;235.30;;;225.27;;
1955;SDS011;978;48.314;11.562;2023-05-10T11:11:48;225.03;;;215.43;;
1955;SDS011;978;48.314;11.562;2023-05-10T11:14:21;212.03;;;202.70;;
1955;SDS011;978;48.314;11.562;2023-05-10T11:16:51;210.87;;;201.60;;
1955;SDS011;978;48.314;11.562;2023-05-10T11:19:21;211.43;;;202.30;;
1955;SDS011;978;48.314;11.562;2023-05-10T11:22:11;216.07;;;206.77;;
1955;SDS011;978;48.314;11.562;2023-05-10T11:24:39;230.37;;;220.00;;
1955;SDS011;978;48.314;11.562;2023-05-10T11:27:21;226.43;;;216.77;;
1955;SDS011;978;48.314;11.562;2023-05-10T11:29:50;230.83;;;221.07;;
1955;SDS011;978;48.314;11.562;2023-05-10T11:32:17;221.07;;;211.57;;
1955;SDS011;978;48.314;11.562;2023-05-10T11:34:50;223.23;;;213.40;;
1955;SDS011;978;48.314;11.562;2023-05-10T11:37:20;202.77;;;193.80;;
1955;SDS011;978;48.314;11.562;2023-05-10T11:39:50;203.07;;;193.93;;
1955;SDS011;978;48.314;11.562;2023-05-10T11:42:18;207.30;;;198.10;;
1955;SDS011;978;48.314;11.562;2023-05-10T11:44:45;213.43;;;204.20;;
1955;SDS011;978;48.314;11.562;2023-05-10T11:47:14;221.67;;;211.93;;
1955;SDS011;978;48.314;11.562;2023-05-10T11:49:43;207.37;;;198.10;;
1955;SDS011;978;48.314;11.562;2023-05-10T11:52:12;221.77;;;212.07;;
1955;SDS011;978;48.314;11.562;2023-05-10T11:54:46;212.90;;;203.47;;
1955;SDS011;978;48.314;11.562;2023-05-10T11:57:20;211.90;;;202.43;;
1955;SDS011;978;48.314;11.562;2023-05-10T11:59:52;220.33;;;210.67;;
1955;SDS011;978;48.314;11.562;2023-05-10T12:02:23;208.20;;;198.83;;
1955;SDS011;978;48.314;11.562;2023-05-10T12:04:52;210.97;;;201.67;;
1955;SDS011;978;48.314;11.562;2023-05-10T12:07:21;215.40;;;205.87;;
1955;SDS011;978;48.314;11.562;2023-05-10T12:12:35;209.60;;;200.20;;
1955;SDS011;978;48.314;11.562;2023-05-10T12:15:10;200.90;;;191.87;;
1955;SDS011;978;48.314;11.562;2023-05-10T12:17:37;202.57;;;193.47;;
1955;SDS011;978;48.314;11.562;2023-05-10T12:20:15;220.07;;;210.27;;
1955;SDS011;978;48.314;11.562;2023-05-10T12:22:46;211.70;;;202.43;;
1955;SDS011;978;48.314;11.562;2023-05-10T12:25:31;194.77;;;185.67;;
1955;SDS011;978;48.314;11.562;2023-05-10T12:28:05;196.90;;;187.97;;
1955;SDS011;978;48.314;11.562;2023-05-10T12:30:34;209.57;;;200.07;;
1955;SDS011;978;48.314;11.562;2023-05-10T12:33:02;192.50;;;183.73;;
1955;SDS011;978;48.314;11.562;2023-05-10T12:35:38;198.47;;;189.60;;
1955;SDS011;978;48.314;11.562;2023-05-10T12:38:26;203.57;;;194.23;;
1955;SDS011;978;48.314;11.562;2023-05-10T12:40:59;196.67;;;187.83;;
1955;SDS011;978;48.314;11.562;2023-05-10T12:43:27;181.73;;;173.10;;
1955;SDS011;978;48.314;11.562;2023-05-10T12:45:55;201.90;;;192.87;;
1955;SDS011;978;48.314;11.562;2023-05-10T12:48:22;195.60;;;186.60;;
1955;SDS011;978;48.314;11.562;2023-05-10T12:50:50;186.37;;;177.87;;
1955;SDS011;978;48.314;11.562;2023-05-10T12:53:18;198.17;;;189.10;;
1955;SDS011;978;48.314;11.562;2023-05-10T12:55:48;172.97;;;164.93;;
1955;SDS011;978;48.314;11.562;2023-05-10T12:58:17;182.63;;;174.13;;
1955;SDS011;978;48.314;11.562;2023-05-10T13:00:45;166.73;;;158.97;;
1955;SDS011;978;48.314;11.562;2023-05-10T13:03:12;182.47;;;173.87;;
1955;SDS011;978;48.314;11.562;2023-05-10T13:05:39;192.13;;;183.37;;
1955;SDS011;978;48.314;11.562;2023-05-10T13:08:06;196.27;;;187.20;;
1955;SDS011;978;48.314;11.562;2023-05-10T13:10:33;188.50;;;179.90;;
1955;SDS011;978;48.314;11.562;2023-05-10T13:13:00;182.40;;;174.03;;
1955;SDS011;978;48.314;11.562;2023-05-10T13:15:29;178.43;;;170.27;;
1955;SDS011;978;48.314;11.562;2023-05-10T13:17:57;168.50;;;160.27;;
1955;SDS011;978;48.314;11.562;2023-05-10T13:20:28;182.83;;;174.50;;
1955;SDS011;978;48.314;11.562;2023-05-10T13:22:56;187.20;;;178.57;;
1955;SDS011;978;48.314;11.562;2023-05-10T13:25:24;184.40;;;175.80;;
1955;SDS011;978;48.314;11.562;2023-05-10T13:27:52;185.80;;;177.33;;
1955;SDS011;978;48.314;11.562;2023-05-10T13:30:20;160.17;;;152.27;;
1955;SDS011;978;48.314;11.562;2023-05-10T13:32:49;173.40;;;165.43;;
1955;SDS011;978;48.314;11.562;2023-05-10T13:35:24;176.77;;;168.60;;
1955;SDS011;978;48.314;11.562;2023-05-10T13:37:56;158.50;;;150.73;;
1955;SDS011;978;48.314;11.562;2023-05-10T13:40:24;156.77;;;149.17;;
1955;SDS011;978;48.314;11.562;2023-05-10T13:42:54;167.20;;;159.13;;
1955;SDS011;978;48.314;11.562;2023-05-10T13:45:20;165.90;;;158.00;;
1955;SDS011;978;48.314;11.562;2023-05-10T13:47:51;162.40;;;154.80;;
1955;SDS011;978;48.314;11.562;2023-05-10T13:50:19;169.50;;;161.53;;
1955;SDS011;978;48.314;11.562;2023-05-10T13:52:46;158.70;;;151.20;;
1955;SDS011;978;48.314;11.562;2023-05-10T13:55:14;162.37;;;154.47;;
1955;SDS011;978;48.314;11.562;2023-05-10T13:57:41;151.63;;;144.23;;
1955;SDS011;978;48.314;11.562;2023-05-10T14:00:08;156.13;;;148.73;;
1955;SDS011;978;48.314;11.562;2023-05-10T14:02:36;145.27;;;138.23;;
1955;SDS011;978;48.314;11.562;2023-05-10T14:05:04;163.83;;;156.20;;
1955;SDS011;978;48.314;11.562;2023-05-10T14:07:33;137.00;;;130.10;;
1955;SDS011;978;48.314;11.562;2023-05-10T14:10:00;159.80;;;152.20;;
1955;SDS011;978;48.314;11.562;2023-05-10T14:12:28;148.10;;;140.80;;
1955;SDS011;978;48.314;11.562;2023-05-10T14:14:55;133.37;;;126.50;;
1955;SDS011;978;48.314;11.562;2023-05-10T14:17:24;143.93;;;137.03;;
1955;SDS011;978;48.314;11.562;2023-05-10T14:19:50;145.33;;;138.13;;
1955;SDS011;978;48.314;11.562;2023-05-10T14:22:19;136.10;;;129.23;;
1955;SDS011;978;48.314;11.562;2023-05-10T14:24:46;144.47;;;137.27;;
1955;SDS011;978;48.314;11.562;2023-05-10T14:27:15;145.80;;;138.63;;
1955;SDS011;978;48.314;11.562;2023-05-10T14:29:42;132.47;;;125.60;;
1955;SDS011;978;48.314;11.562;2023-05-10T14:32:08;139.17;;;132.17;;
1955;SDS011;978;48.314;11.562;2023-05-10T14:34:35;136.37;;;129.67;;
1955;SDS011;978;48.314;11.562;2023-05-10T14:37:02;131.17;;;124.37;;
1955;SDS011;978;48.314;11.562;2023-05-10T14:39:30;143.30;;;136.00;;
1955;SDS011;978;48.314;11.562;2023-05-10T14:41:59;130.47;;;124.07;;
1955;SDS011;978;48.314;11.562;2023-05-10T14:44:27;129.27;;;122.80;;
1955;SDS011;978;48.314;11.562;2023-05-10T14:46:54;134.97;;;128.27;;
1955;SDS011;978;48.314;11.562;2023-05-10T14:49:21;140.43;;;133.80;;
1955;SDS011;978;48.314;11.562;2023-05-10T14:51:51;125.90;;;119.40;;
1955;SDS011;978;48.314;11.562;2023-05-10T14:54:17;123.60;;;117.40;;
1955;SDS011;978;48.314;11.562;2023-05-10T14:56:48;125.50;;;119.33;;
1955;SDS011;978;48.314;11.562;2023-05-10T14:59:15;129.60;;;123.13;;
1955;SDS011;978;48.314;11.562;2023-05-10T15:01:42;126.53;;;120.03;;
1955;SDS011;978;48.314;11.562;2023-05-10T15:04:10;132.93;;;126.30;;
1955;SDS011;978;48.314;11.562;2023-05-10T15:06:38;132.33;;;125.83;;
1955;SDS011;978;48.314;11.562;2023-05-10T15:09:04;130.87;;;124.37;;
1955;SDS011;978;48.314;11.562;2023-05-10T15:11:31;120.97;;;114.93;;
1955;SDS011;978;48.314;11.562;2023-05-10T15:14:02;133.10;;;126.53;;
1955;SDS011;978;48.314;11.562;2023-05-10T15:16:30;115.43;;;109.43;;